createdAt,value
2023-02-25T00:00:54.363Z,62.24
2023-02-25T00:05:59.163Z,62.35
2023-02-25T00:11:04.445Z,62.14
2023-02-25T00:16:09.098Z,61.98
2023-02-25T00:21:16.272Z,62.00
2023-02-25T00:26:20.321Z,62.35
2023-02-25T00:31:26.282Z,62.81
2023-02-25T00:36:31.077Z,62.48
2023-02-25T00:41:34.744Z,61.96
2023-02-25T00:46:38.224Z,62.58
2023-02-25T00:51:43.137Z,62.83
2023-02-25T00:56:46.361Z,64.14
2023-02-25T01:01:49.874Z,62.57
2023-02-25T01:06:55.432Z,62.17
2023-02-25T01:11:58.814Z,62.69
2023-02-25T01:17:03.646Z,62.36
2023-02-25T01:22:08.361Z,64.20
2023-02-25T01:27:11.911Z,61.68
2023-02-25T01:32:16.714Z,62.26
2023-02-25T01:37:21.351Z,61.95
2023-02-25T01:42:25.075Z,62.25
2023-02-25T01:47:33.772Z,62.28
2023-02-25T01:52:41.592Z,62.48
2023-02-25T01:57:45.017Z,62.79
2023-02-25T02:02:50.811Z,62.60
2023-02-25T02:07:55.888Z,63.10
2023-02-25T02:12:59.496Z,62.65
2023-02-25T02:18:23.210Z,62.22
2023-02-25T02:24:07.964Z,63.90
2023-02-25T02:29:35.636Z,63.84
2023-02-25T02:34:47.661Z,62.18
2023-02-25T02:40:00.542Z,63.10
2023-02-25T02:45:12.863Z,62.26
2023-02-25T02:50:25.099Z,62.56
2023-02-25T02:55:33.737Z,62.69
2023-02-25T03:00:40.649Z,62.09
2023-02-25T03:05:50.457Z,63.13
2023-02-25T03:10:54.313Z,62.51
2023-02-25T03:16:01.463Z,62.26
2023-02-25T03:21:14.661Z,62.62
2023-02-25T03:26:24.929Z,61.79
2023-02-25T03:31:31.680Z,62.20
2023-02-25T03:36:41.625Z,63.07
2023-02-25T03:41:48.414Z,62.97
2023-02-25T03:46:53.806Z,62.65
2023-02-25T03:52:01.253Z,63.01
2023-02-25T03:57:04.781Z,62.60
2023-02-25T04:02:08.928Z,62.17
2023-02-25T04:07:13.836Z,62.47
2023-02-25T04:12:16.909Z,62.82
2023-02-25T04:17:20.650Z,62.58
2023-02-25T04:22:26.007Z,62.99
2023-02-25T04:27:29.523Z,62.18
2023-02-25T04:32:33.082Z,62.62
2023-02-25T04:37:37.996Z,63.18
2023-02-25T04:42:41.082Z,64.86
2023-02-25T04:47:44.864Z,62.88
2023-02-25T04:52:49.787Z,62.81
2023-02-25T04:57:52.875Z,62.39
2023-02-25T05:02:56.633Z,62.79
2023-02-25T05:08:01.569Z,62.82
2023-02-25T05:13:05.128Z,62.03
2023-02-25T05:18:08.911Z,61.42
2023-02-25T05:23:13.923Z,62.39
2023-02-25T05:28:17.479Z,62.53
2023-02-25T05:33:20.969Z,62.39
2023-02-25T05:38:26.325Z,62.81
2023-02-25T05:43:30.227Z,62.89
2023-02-25T05:48:34.416Z,62.45
2023-02-25T05:53:39.671Z,62.30
2023-02-25T05:58:43.504Z,62.46
2023-02-25T06:03:50.233Z,62.37
2023-02-25T06:08:55.339Z,61.63
2023-02-25T06:14:00.048Z,61.54
2023-02-25T06:19:03.686Z,62.07
2023-02-25T06:24:09.172Z,61.23
2023-02-25T06:29:13.033Z,61.62
2023-02-25T06:34:16.606Z,61.88
2023-02-25T06:39:21.390Z,61.41
2023-02-25T06:44:24.827Z,61.14
2023-02-25T06:49:28.192Z,61.37
2023-02-25T06:54:33.075Z,61.24
2023-02-25T06:59:36.175Z,61.42
2023-02-25T07:04:39.689Z,60.96
2023-02-25T07:09:44.617Z,61.77
2023-02-25T07:14:47.795Z,59.99
2023-02-25T07:19:51.495Z,59.36
2023-02-25T07:24:56.292Z,59.43
2023-02-25T07:30:00.875Z,59.06
2023-02-25T07:35:04.720Z,59.41
2023-02-25T07:40:13.734Z,58.61
2023-02-25T07:45:17.096Z,58.56
2023-02-25T07:50:20.837Z,58.51
2023-02-25T07:55:25.986Z,59.21
2023-02-25T08:00:29.461Z,59.20
2023-02-25T08:05:35.452Z,58.77
2023-02-25T08:10:40.245Z,58.78
2023-02-25T08:15:43.878Z,58.92
2023-02-25T08:20:48.688Z,58.58
2023-02-25T08:25:56.388Z,58.29
2023-02-25T08:31:01.436Z,58.47
2023-02-25T08:36:09.867Z,59.34
2023-02-25T08:41:14.864Z,59.12
2023-02-25T08:46:20.889Z,58.97
2023-02-25T08:51:34.153Z,58.67
2023-02-25T08:56:44.533Z,58.86
2023-02-25T09:01:49.317Z,58.73
2023-02-25T09:06:54.333Z,58.44
2023-02-25T09:11:58.973Z,57.84
2023-02-25T09:17:04.176Z,57.89
2023-02-25T09:22:08.456Z,57.58
2023-02-25T09:27:13.507Z,57.16
2023-02-25T09:32:18.380Z,57.66
2023-02-25T09:37:22.080Z,58.04
2023-02-25T09:42:34.714Z,58.13
2023-02-25T09:47:45.999Z,58.10
2023-02-25T09:53:07.771Z,57.79
2023-02-25T09:58:20.419Z,58.07
2023-02-25T10:03:28.289Z,57.91
2023-02-25T10:08:40.570Z,57.89
2023-02-25T10:13:55.877Z,57.77
2023-02-25T10:19:03.985Z,56.74
2023-02-25T10:24:19.907Z,57.30
2023-02-25T10:29:30.037Z,56.67
2023-02-25T10:34:38.980Z,56.86
2023-02-25T10:39:42.486Z,56.73
2023-02-25T10:44:48.062Z,57.44
2023-02-25T10:50:15.043Z,58.49
2023-02-25T10:55:28.572Z,58.07
2023-02-25T11:00:36.575Z,58.02
2023-02-25T11:05:43.763Z,58.12
2023-02-25T11:11:03.588Z,58.59
2023-02-25T11:16:12.656Z,59.05
2023-02-25T11:21:16.458Z,59.90
2023-02-25T11:26:30.600Z,59.24
2023-02-25T11:31:37.832Z,58.73
2023-02-25T11:36:42.037Z,58.93
2023-02-25T11:41:46.529Z,59.05
2023-02-25T11:47:01.707Z,59.11
2023-02-25T11:52:10.340Z,60.01
2023-02-25T11:57:21.304Z,60.41
2023-02-25T12:02:45.587Z,60.85
2023-02-25T12:08:14.402Z,61.08
2023-02-25T12:13:57.228Z,61.46
2023-02-25T12:19:38.900Z,62.14
2023-02-25T12:25:15.184Z,61.87
2023-02-25T12:30:50.163Z,62.47
2023-02-25T12:36:11.528Z,63.05
2023-02-25T12:41:39.726Z,63.13
2023-02-25T12:46:59.013Z,64.02
2023-02-25T12:52:19.196Z,62.31
2023-02-25T12:57:37.554Z,64.70
2023-02-25T13:02:54.941Z,64.51
2023-02-25T13:08:51.900Z,64.94
2023-02-25T13:14:28.589Z,63.79
2023-02-25T13:20:08.203Z,64.43
2023-02-25T13:25:16.532Z,63.76
2023-02-25T13:30:31.453Z,65.55
2023-02-25T13:35:46.398Z,65.15
2023-02-25T13:41:01.137Z,64.67
2023-02-25T13:46:27.477Z,66.47
2023-02-25T13:51:58.001Z,65.96
2023-02-25T13:57:11.735Z,66.01
2023-02-25T14:02:51.027Z,64.82
2023-02-25T14:08:14.808Z,64.86
2023-02-25T14:13:54.538Z,65.79
2023-02-25T14:19:20.998Z,65.96
2023-02-25T14:24:32.425Z,65.79
2023-02-25T14:29:44.553Z,66.44
2023-02-25T14:35:00.861Z,67.38
2023-02-25T14:40:20.707Z,68.44
2023-02-25T14:45:29.379Z,67.16
2023-02-25T14:50:41.672Z,67.79
2023-02-25T14:56:22.444Z,67.81
2023-02-25T15:02:03.453Z,69.26
2023-02-25T15:07:16.805Z,68.57
2023-02-25T15:12:44.586Z,69.74
2023-02-25T15:18:34.755Z,71.27
2023-02-25T15:23:52.008Z,70.43
2023-02-25T15:28:57.173Z,68.96
2023-02-25T15:34:39.973Z,70.83
2023-02-25T15:39:54.001Z,71.17
2023-02-25T15:45:39.060Z,71.26
2023-02-25T15:50:55.010Z,69.99
2023-02-25T15:56:25.613Z,70.31
2023-02-25T16:01:48.515Z,69.93
2023-02-25T16:06:53.758Z,69.32
2023-02-25T16:12:08.435Z,70.20
2023-02-25T16:17:19.121Z,69.54
2023-02-25T16:22:25.182Z,69.04
2023-02-25T16:27:45.392Z,69.88
2023-02-25T16:33:01.014Z,68.98
2023-02-25T16:38:10.495Z,68.54
2023-02-25T16:43:17.277Z,69.20
2023-02-25T16:48:28.594Z,68.82
2023-02-25T16:53:33.002Z,69.36
2023-02-25T16:58:36.391Z,69.06
2023-02-25T17:03:47.033Z,69.78
2023-02-25T17:08:52.331Z,69.70
2023-02-25T17:13:58.883Z,70.83
2023-02-25T17:19:07.064Z,70.54
2023-02-25T17:24:16.221Z,70.06
2023-02-25T17:29:20.831Z,70.36
2023-02-25T17:34:33.222Z,70.61
2023-02-25T17:39:37.481Z,70.24
2023-02-25T17:44:47.575Z,69.80
2023-02-25T17:49:52.967Z,70.07
2023-02-25T17:55:00.668Z,71.24
2023-02-25T18:00:14.332Z,70.54
2023-02-25T18:05:25.270Z,69.74
2023-02-25T18:10:44.503Z,70.23
2023-02-25T18:15:53.216Z,69.69
2023-02-25T18:21:03.837Z,70.01
2023-02-25T18:26:16.464Z,70.68
2023-02-25T18:31:20.546Z,70.22
2023-02-25T18:36:27.926Z,70.25
2023-02-25T18:41:31.412Z,69.38
2023-02-25T18:46:34.977Z,70.72
2023-02-25T18:51:40.066Z,69.90
2023-02-25T18:56:43.521Z,69.36
2023-02-25T19:01:47.190Z,70.06
2023-02-25T19:06:52.025Z,71.11
2023-02-25T19:11:55.531Z,70.48
2023-02-25T19:16:59.026Z,69.53
2023-02-25T19:22:03.821Z,70.04
2023-02-25T19:27:07.233Z,69.28
2023-02-25T19:32:10.801Z,69.62
2023-02-25T19:37:17.831Z,69.80
2023-02-25T19:42:21.259Z,70.46
2023-02-25T19:47:25.146Z,70.96
2023-02-25T19:52:30.965Z,69.87
2023-02-25T19:57:34.603Z,69.67
2023-02-25T20:02:38.147Z,70.87
2023-02-25T20:07:44.560Z,71.07
2023-02-25T20:12:48.466Z,71.57
2023-02-25T20:17:55.123Z,71.22
2023-02-25T20:22:59.913Z,71.09
2023-02-25T20:28:03.609Z,70.52
2023-02-25T20:33:07.160Z,71.33
2023-02-25T20:38:17.786Z,70.96
2023-02-25T20:43:21.463Z,71.16
2023-02-25T20:48:29.416Z,71.32
2023-02-25T20:53:35.011Z,72.64
2023-02-25T20:58:38.448Z,72.32
2023-02-25T21:03:41.809Z,71.67
2023-02-25T21:08:47.253Z,72.11
2023-02-25T21:13:51.650Z,71.60
2023-02-25T21:18:55.202Z,72.86
2023-02-25T21:23:59.955Z,73.68
2023-02-25T21:29:03.310Z,73.67
2023-02-25T21:34:09.224Z,72.61
2023-02-25T21:39:14.130Z,73.33
2023-02-25T21:44:17.716Z,73.83
2023-02-25T21:49:21.200Z,74.05
2023-02-25T21:54:26.144Z,73.52
2023-02-25T21:59:29.313Z,73.38
2023-02-25T22:04:32.699Z,72.83
2023-02-25T22:09:37.493Z,74.46
2023-02-25T22:14:40.904Z,72.72
2023-02-25T22:19:44.283Z,73.58
2023-02-25T22:24:49.180Z,72.48
2023-02-25T22:29:52.537Z,73.78
2023-02-25T22:34:55.949Z,72.67
2023-02-25T22:40:00.859Z,73.97
2023-02-25T22:45:04.080Z,73.21
2023-02-25T22:50:09.357Z,72.81
2023-02-25T22:55:14.322Z,72.13
2023-02-25T23:00:18.702Z,71.48
2023-02-25T23:05:22.135Z,71.92
2023-02-25T23:10:28.233Z,72.47
2023-02-25T23:15:33.253Z,71.75
2023-02-25T23:20:38.975Z,71.67
2023-02-25T23:25:43.871Z,72.24
2023-02-25T23:30:47.107Z,73.47
2023-02-25T23:35:50.434Z,71.57
2023-02-25T23:41:00.057Z,70.95
2023-02-25T23:46:04.764Z,71.29
2023-02-25T23:51:09.670Z,71.00
2023-02-25T23:56:15.069Z,70.89
